sensor_id;sensor_type;location;lat;lon;timestamp;P1;durP1;ratioP1;P2;durP2;ratioP2
72286;SDS011;60221;45.696;16.076;2023-10-13T00:01:23;17.90;;;9.20;;
72286;SDS011;60221;45.696;16.076;2023-10-13T00:03:50;16.30;;;9.30;;
72286;SDS011;60221;45.696;16.076;2023-10-13T00:06:21;19.20;;;10.00;;
72286;SDS011;60221;45.696;16.076;2023-10-13T00:08:48;17.90;;;8.80;;
72286;SDS011;60221;45.696;16.076;2023-10-13T00:11:15;17.80;;;9.50;;
72286;SDS011;60221;45.696;16.076;2023-10-13T00:13:42;19.70;;;9.20;;
72286;SDS011;60221;45.696;16.076;2023-10-13T00:16:10;17.60;;;8.70;;
72286;SDS011;60221;45.696;16.076;2023-10-13T00:18:44;17.30;;;8.60;;
72286;SDS011;60221;45.696;16.076;2023-10-13T00:21:11;25.00;;;9.00;;
72286;SDS011;60221;45.696;16.076;2023-10-13T00:23:43;19.10;;;8.90;;
72286;SDS011;60221;45.696;16.076;2023-10-13T00:26:20;16.80;;;9.00;;
72286;SDS011;60221;45.696;16.076;2023-10-13T00:28:52;19.60;;;8.70;;
72286;SDS011;60221;45.696;16.076;2023-10-13T00:31:25;18.90;;;8.80;;
72286;SDS011;60221;45.696;16.076;2023-10-13T00:34:03;19.20;;;9.20;;
72286;SDS011;60221;45.696;16.076;2023-10-13T00:36:56;17.00;;;9.60;;
72286;SDS011;60221;45.696;16.076;2023-10-13T00:39:58;16.30;;;8.80;;
72286;SDS011;60221;45.696;16.076;2023-10-13T00:42:27;17.90;;;8.60;;
72286;SDS011;60221;45.696;16.076;2023-10-13T00:45:04;20.20;;;9.80;;
72286;SDS011;60221;45.696;16.076;2023-10-13T00:47:32;20.20;;;9.60;;
72286;SDS011;60221;45.696;16.076;2023-10-13T00:50:16;19.40;;;9.50;;
72286;SDS011;60221;45.696;16.076;2023-10-13T00:52:45;22.10;;;9.70;;
72286;SDS011;60221;45.696;16.076;2023-10-13T00:55:13;18.50;;;9.70;;
72286;SDS011;60221;45.696;16.076;2023-10-13T00:57:41;19.10;;;9.60;;
72286;SDS011;60221;45.696;16.076;2023-10-13T01:00:08;22.10;;;9.70;;
72286;SDS011;60221;45.696;16.076;2023-10-13T01:02:55;15.20;;;7.90;;
72286;SDS011;60221;45.696;16.076;2023-10-13T01:05:23;18.00;;;8.90;;
72286;SDS011;60221;45.696;16.076;2023-10-13T01:07:51;16.80;;;9.10;;
72286;SDS011;60221;45.696;16.076;2023-10-13T01:10:21;18.10;;;8.80;;
72286;SDS011;60221;45.696;16.076;2023-10-13T01:12:56;18.50;;;8.90;;
72286;SDS011;60221;45.696;16.076;2023-10-13T01:15:22;16.50;;;8.50;;
72286;SDS011;60221;45.696;16.076;2023-10-13T01:18:09;17.00;;;9.30;;
72286;SDS011;60221;45.696;16.076;2023-10-13T01:20:38;16.30;;;8.20;;
72286;SDS011;60221;45.696;16.076;2023-10-13T01:23:19;17.30;;;9.00;;
72286;SDS011;60221;45.696;16.076;2023-10-13T01:25:47;17.60;;;7.90;;
72286;SDS011;60221;45.696;16.076;2023-10-13T01:28:15;16.20;;;9.30;;
72286;SDS011;60221;45.696;16.076;2023-10-13T01:30:43;16.50;;;8.80;;
72286;SDS011;60221;45.696;16.076;2023-10-13T01:33:17;17.90;;;9.00;;
72286;SDS011;60221;45.696;16.076;2023-10-13T01:35:53;16.80;;;9.10;;
72286;SDS011;60221;45.696;16.076;2023-10-13T01:38:23;17.80;;;8.60;;
72286;SDS011;60221;45.696;16.076;2023-10-13T01:40:55;18.20;;;8.90;;
72286;SDS011;60221;45.696;16.076;2023-10-13T01:43:24;21.90;;;9.00;;
72286;SDS011;60221;45.696;16.076;2023-10-13T01:45:51;21.10;;;9.80;;
72286;SDS011;60221;45.696;16.076;2023-10-13T01:48:18;21.20;;;9.20;;
72286;SDS011;60221;45.696;16.076;2023-10-13T01:50:48;17.20;;;9.30;;
72286;SDS011;60221;45.696;16.076;2023-10-13T01:53:21;19.90;;;8.50;;
72286;SDS011;60221;45.696;16.076;2023-10-13T01:55:49;23.10;;;9.20;;
72286;SDS011;60221;45.696;16.076;2023-10-13T01:58:17;17.10;;;8.50;;
72286;SDS011;60221;45.696;16.076;2023-10-13T02:00:50;17.80;;;8.50;;
72286;SDS011;60221;45.696;16.076;2023-10-13T02:03:17;16.20;;;7.70;;
72286;SDS011;60221;45.696;16.076;2023-10-13T02:05:45;15.90;;;8.20;;
72286;SDS011;60221;45.696;16.076;2023-10-13T02:08:18;18.80;;;8.80;;
72286;SDS011;60221;45.696;16.076;2023-10-13T02:10:53;18.50;;;8.30;;
72286;SDS011;60221;45.696;16.076;2023-10-13T02:13:20;17.60;;;8.70;;
72286;SDS011;60221;45.696;16.076;2023-10-13T02:15:49;18.70;;;8.30;;
72286;SDS011;60221;45.696;16.076;2023-10-13T02:18:19;16.90;;;8.60;;
72286;SDS011;60221;45.696;16.076;2023-10-13T02:20:53;18.50;;;8.30;;
72286;SDS011;60221;45.696;16.076;2023-10-13T02:23:25;18.20;;;8.60;;
72286;SDS011;60221;45.696;16.076;2023-10-13T02:25:56;19.10;;;9.90;;
72286;SDS011;60221;45.696;16.076;2023-10-13T02:28:38;20.90;;;8.60;;
72286;SDS011;60221;45.696;16.076;2023-10-13T02:31:05;17.80;;;8.50;;
72286;SDS011;60221;45.696;16.076;2023-10-13T02:33:34;14.60;;;7.90;;
72286;SDS011;60221;45.696;16.076;2023-10-13T02:36:02;18.50;;;8.30;;
72286;SDS011;60221;45.696;16.076;2023-10-13T02:38:32;15.90;;;8.50;;
72286;SDS011;60221;45.696;16.076;2023-10-13T02:41:12;18.60;;;9.20;;
72286;SDS011;60221;45.696;16.076;2023-10-13T02:43:45;19.40;;;7.40;;
72286;SDS011;60221;45.696;16.076;2023-10-13T02:46:13;18.80;;;8.20;;
72286;SDS011;60221;45.696;16.076;2023-10-13T02:48:43;16.40;;;9.00;;
72286;SDS011;60221;45.696;16.076;2023-10-13T02:51:12;18.10;;;8.80;;
72286;SDS011;60221;45.696;16.076;2023-10-13T02:53:44;15.30;;;8.00;;
72286;SDS011;60221;45.696;16.076;2023-10-13T02:56:19;19.50;;;8.20;;
72286;SDS011;60221;45.696;16.076;2023-10-13T02:58:51;16.80;;;8.70;;
72286;SDS011;60221;45.696;16.076;2023-10-13T03:01:23;15.20;;;7.90;;
72286;SDS011;60221;45.696;16.076;2023-10-13T03:03:54;16.80;;;8.50;;
72286;SDS011;60221;45.696;16.076;2023-10-13T03:06:22;13.20;;;7.30;;
72286;SDS011;60221;45.696;16.076;2023-10-13T03:08:51;14.30;;;7.60;;
72286;SDS011;60221;45.696;16.076;2023-10-13T03:11:19;15.40;;;7.50;;
72286;SDS011;60221;45.696;16.076;2023-10-13T03:13:49;15.40;;;7.40;;
72286;SDS011;60221;45.696;16.076;2023-10-13T03:16:18;13.90;;;7.10;;
72286;SDS011;60221;45.696;16.076;2023-10-13T03:18:48;17.00;;;7.40;;
72286;SDS011;60221;45.696;16.076;2023-10-13T03:21:23;16.50;;;7.70;;
72286;SDS011;60221;45.696;16.076;2023-10-13T03:23:56;15.10;;;7.90;;
72286;SDS011;60221;45.696;16.076;2023-10-13T03:26:31;16.10;;;7.50;;
72286;SDS011;60221;45.696;16.076;2023-10-13T03:29:04;13.20;;;7.60;;
72286;SDS011;60221;45.696;16.076;2023-10-13T03:31:35;15.80;;;7.40;;
72286;SDS011;60221;45.696;16.076;2023-10-13T03:34:04;13.70;;;7.20;;
72286;SDS011;60221;45.696;16.076;2023-10-13T03:36:32;16.20;;;7.60;;
72286;SDS011;60221;45.696;16.076;2023-10-13T03:39:17;15.20;;;7.20;;
72286;SDS011;60221;45.696;16.076;2023-10-13T03:41:45;16.10;;;6.80;;
72286;SDS011;60221;45.696;16.076;2023-10-13T03:44:22;15.20;;;6.80;;
72286;SDS011;60221;45.696;16.076;2023-10-13T03:46:50;15.80;;;8.20;;
72286;SDS011;60221;45.696;16.076;2023-10-13T03:49:21;15.10;;;7.80;;
72286;SDS011;60221;45.696;16.076;2023-10-13T03:51:49;18.70;;;7.40;;
72286;SDS011;60221;45.696;16.076;2023-10-13T03:54:16;14.30;;;7.50;;
72286;SDS011;60221;45.696;16.076;2023-10-13T03:56:43;15.80;;;7.30;;
72286;SDS011;60221;45.696;16.076;2023-10-13T03:59:19;17.60;;;8.00;;
72286;SDS011;60221;45.696;16.076;2023-10-13T04:01:47;18.20;;;9.00;;
72286;SDS011;60221;45.696;16.076;2023-10-13T04:04:26;18.50;;;9.70;;
72286;SDS011;60221;45.696;16.076;2023-10-13T04:07:16;23.40;;;10.90;;
72286;SDS011;60221;45.696;16.076;2023-10-13T04:09:52;20.50;;;10.30;;
72286;SDS011;60221;45.696;16.076;2023-10-13T04:12:39;19.70;;;8.30;;
72286;SDS011;60221;45.696;16.076;2023-10-13T04:15:32;16.20;;;7.70;;
72286;SDS011;60221;45.696;16.076;2023-10-13T04:18:10;15.70;;;8.40;;
72286;SDS011;60221;45.696;16.076;2023-10-13T04:21:06;17.80;;;7.80;;
72286;SDS011;60221;45.696;16.076;2023-10-13T04:23:56;14.00;;;7.00;;
72286;SDS011;60221;45.696;16.076;2023-10-13T04:26:45;14.50;;;7.70;;
72286;SDS011;60221;45.696;16.076;2023-10-13T04:29:34;15.70;;;7.40;;
72286;SDS011;60221;45.696;16.076;2023-10-13T04:32:20;13.10;;;7.20;;
72286;SDS011;60221;45.696;16.076;2023-10-13T04:34:57;12.40;;;6.30;;
72286;SDS011;60221;45.696;16.076;2023-10-13T04:37:36;13.00;;;6.00;;
72286;SDS011;60221;45.696;16.076;2023-10-13T04:40:22;11.50;;;6.30;;
72286;SDS011;60221;45.696;16.076;2023-10-13T04:42:53;9.80;;;5.10;;
72286;SDS011;60221;45.696;16.076;2023-10-13T04:45:20;12.00;;;5.70;;
72286;SDS011;60221;45.696;16.076;2023-10-13T04:47:56;11.50;;;6.20;;
72286;SDS011;60221;45.696;16.076;2023-10-13T04:50:46;13.50;;;6.30;;
72286;SDS011;60221;45.696;16.076;2023-10-13T04:53:14;10.00;;;4.30;;
72286;SDS011;60221;45.696;16.076;2023-10-13T04:55:57;9.20;;;3.90;;
72286;SDS011;60221;45.696;16.076;2023-10-13T04:58:30;10.20;;;4.10;;
72286;SDS011;60221;45.696;16.076;2023-10-13T05:01:03;10.30;;;4.40;;
72286;SDS011;60221;45.696;16.076;2023-10-13T05:03:49;10.90;;;4.80;;
72286;SDS011;60221;45.696;16.076;2023-10-13T05:06:32;12.50;;;5.20;;
72286;SDS011;60221;45.696;16.076;2023-10-13T05:09:14;13.40;;;5.50;;
72286;SDS011;60221;45.696;16.076;2023-10-13T05:11:59;13.70;;;5.50;;
72286;SDS011;60221;45.696;16.076;2023-10-13T05:14:45;11.70;;;5.50;;
72286;SDS011;60221;45.696;16.076;2023-10-13T05:17:31;9.50;;;4.70;;
72286;SDS011;60221;45.696;16.076;2023-10-13T05:20:17;11.80;;;6.20;;
72286;SDS011;60221;45.696;16.076;2023-10-13T05:23:03;15.20;;;6.00;;
72286;SDS011;60221;45.696;16.076;2023-10-13T05:25:48;12.20;;;5.50;;
72286;SDS011;60221;45.696;16.076;2023-10-13T05:28:34;15.20;;;6.80;;
72286;SDS011;60221;45.696;16.076;2023-10-13T05:31:20;16.20;;;6.60;;
72286;SDS011;60221;45.696;16.076;2023-10-13T05:34:05;13.10;;;6.10;;
72286;SDS011;60221;45.696;16.076;2023-10-13T05:36:51;13.80;;;6.50;;
72286;SDS011;60221;45.696;16.076;2023-10-13T05:39:37;12.90;;;6.40;;
72286;SDS011;60221;45.696;16.076;2023-10-13T05:42:23;14.10;;;6.80;;
72286;SDS011;60221;45.696;16.076;2023-10-13T05:45:08;15.70;;;6.50;;
72286;SDS011;60221;45.696;16.076;2023-10-13T05:47:44;16.10;;;6.90;;
72286;SDS011;60221;45.696;16.076;2023-10-13T05:50:11;15.60;;;6.70;;
72286;SDS011;60221;45.696;16.076;2023-10-13T05:52:48;15.20;;;7.50;;
72286;SDS011;60221;45.696;16.076;2023-10-13T05:55:22;16.60;;;7.40;;
72286;SDS011;60221;45.696;16.076;2023-10-13T05:58:08;14.60;;;7.20;;
72286;SDS011;60221;45.696;16.076;2023-10-13T06:00:54;14.00;;;5.80;;
72286;SDS011;60221;45.696;16.076;2023-10-13T06:03:39;14.00;;;6.20;;
72286;SDS011;60221;45.696;16.076;2023-10-13T06:06:25;14.60;;;6.10;;
72286;SDS011;60221;45.696;16.076;2023-10-13T06:09:11;14.10;;;6.50;;
72286;SDS011;60221;45.696;16.076;2023-10-13T06:11:56;14.20;;;7.30;;
72286;SDS011;60221;45.696;16.076;2023-10-13T06:14:50;15.00;;;7.40;;
72286;SDS011;60221;45.696;16.076;2023-10-13T06:17:36;17.00;;;7.70;;
72286;SDS011;60221;45.696;16.076;2023-10-13T06:20:21;15.10;;;7.60;;
72286;SDS011;60221;45.696;16.076;2023-10-13T06:23:07;17.40;;;8.20;;
72286;SDS011;60221;45.696;16.076;2023-10-13T06:25:53;13.00;;;7.70;;
72286;SDS011;60221;45.696;16.076;2023-10-13T06:28:39;18.80;;;7.80;;
72286;SDS011;60221;45.696;16.076;2023-10-13T06:31:10;15.50;;;8.10;;
72286;SDS011;60221;45.696;16.076;2023-10-13T06:33:50;17.00;;;8.60;;
72286;SDS011;60221;45.696;16.076;2023-10-13T06:36:17;21.00;;;9.70;;
72286;SDS011;60221;45.696;16.076;2023-10-13T06:38:47;17.80;;;8.80;;
72286;SDS011;60221;45.696;16.076;2023-10-13T06:41:22;16.10;;;9.40;;
72286;SDS011;60221;45.696;16.076;2023-10-13T06:44:00;16.30;;;8.80;;
72286;SDS011;60221;45.696;16.076;2023-10-13T06:46:28;18.00;;;9.50;;
72286;SDS011;60221;45.696;16.076;2023-10-13T06:48:56;17.60;;;8.90;;
72286;SDS011;60221;45.696;16.076;2023-10-13T06:51:26;19.40;;;9.40;;
72286;SDS011;60221;45.696;16.076;2023-10-13T06:53:58;17.00;;;9.00;;
72286;SDS011;60221;45.696;16.076;2023-10-13T06:56:25;18.70;;;9.00;;
72286;SDS011;60221;45.696;16.076;2023-10-13T06:58:55;18.60;;;9.00;;
72286;SDS011;60221;45.696;16.076;2023-10-13T07:01:34;18.90;;;9.40;;
72286;SDS011;60221;45.696;16.076;2023-10-13T07:04:08;16.60;;;8.90;;
72286;SDS011;60221;45.696;16.076;2023-10-13T07:06:45;16.70;;;8.80;;
72286;SDS011;60221;45.696;16.076;2023-10-13T07:09:16;18.30;;;9.10;;
72286;SDS011;60221;45.696;16.076;2023-10-13T07:12:06;19.20;;;9.60;;
72286;SDS011;60221;45.696;16.076;2023-10-13T07:14:33;19.00;;;9.60;;
72286;SDS011;60221;45.696;16.076;2023-10-13T07:17:01;16.80;;;8.60;;
72286;SDS011;60221;45.696;16.076;2023-10-13T07:19:30;19.30;;;8.60;;
72286;SDS011;60221;45.696;16.076;2023-10-13T07:21:58;13.20;;;7.10;;
72286;SDS011;60221;45.696;16.076;2023-10-13T07:24:26;16.30;;;8.20;;
72286;SDS011;60221;45.696;16.076;2023-10-13T07:27:02;16.60;;;8.00;;
72286;SDS011;60221;45.696;16.076;2023-10-13T07:29:32;18.20;;;8.90;;
72286;SDS011;60221;45.696;16.076;2023-10-13T07:32:03;14.90;;;8.30;;
72286;SDS011;60221;45.696;16.076;2023-10-13T07:34:30;14.70;;;8.30;;
72286;SDS011;60221;45.696;16.076;2023-10-13T07:37:03;17.80;;;8.70;;
72286;SDS011;60221;45.696;16.076;2023-10-13T07:39:34;18.70;;;9.40;;
72286;SDS011;60221;45.696;16.076;2023-10-13T07:42:02;15.90;;;9.00;;
72286;SDS011;60221;45.696;16.076;2023-10-13T07:44:46;15.80;;;8.80;;
72286;SDS011;60221;45.696;16.076;2023-10-13T07:47:13;15.30;;;9.20;;
72286;SDS011;60221;45.696;16.076;2023-10-13T07:49:41;15.20;;;8.50;;
72286;SDS011;60221;45.696;16.076;2023-10-13T07:52:09;19.30;;;9.50;;
72286;SDS011;60221;45.696;16.076;2023-10-13T07:55:01;15.80;;;7.50;;
72286;SDS011;60221;45.696;16.076;2023-10-13T07:57:37;19.70;;;8.90;;
72286;SDS011;60221;45.696;16.076;2023-10-13T08:00:20;15.40;;;8.20;;
72286;SDS011;60221;45.696;16.076;2023-10-13T08:03:14;15.70;;;8.20;;
72286;SDS011;60221;45.696;16.076;2023-10-13T08:05:45;13.70;;;7.50;;
72286;SDS011;60221;45.696;16.076;2023-10-13T08:08:25;18.70;;;8.90;;
72286;SDS011;60221;45.696;16.076;2023-10-13T08:10:52;16.30;;;7.60;;
72286;SDS011;60221;45.696;16.076;2023-10-13T08:13:27;16.30;;;8.20;;
72286;SDS011;60221;45.696;16.076;2023-10-13T08:15:54;13.90;;;8.10;;
72286;SDS011;60221;45.696;16.076;2023-10-13T08:18:21;19.20;;;10.10;;
72286;SDS011;60221;45.696;16.076;2023-10-13T08:20:58;17.60;;;8.80;;
72286;SDS011;60221;45.696;16.076;2023-10-13T08:23:30;17.00;;;8.10;;
72286;SDS011;60221;45.696;16.076;2023-10-13T08:26:17;18.20;;;8.90;;
72286;SDS011;60221;45.696;16.076;2023-10-13T08:28:59;21.00;;;9.50;;
72286;SDS011;60221;45.696;16.076;2023-10-13T08:31:50;15.30;;;8.70;;
72286;SDS011;60221;45.696;16.076;2023-10-13T08:34:38;17.50;;;9.80;;
72286;SDS011;60221;45.696;16.076;2023-10-13T08:37:11;17.10;;;9.00;;
72286;SDS011;60221;45.696;16.076;2023-10-13T08:39:53;17.10;;;8.80;;
72286;SDS011;60221;45.696;16.076;2023-10-13T08:42:52;15.50;;;9.10;;
72286;SDS011;60221;45.696;16.076;2023-10-13T08:45:36;17.90;;;8.30;;
72286;SDS011;60221;45.696;16.076;2023-10-13T08:48:04;15.20;;;8.70;;
72286;SDS011;60221;45.696;16.076;2023-10-13T08:50:36;16.70;;;8.40;;
72286;SDS011;60221;45.696;16.076;2023-10-13T08:58:41;17.00;;;8.60;;
72286;SDS011;60221;45.696;16.076;2023-10-13T09:01:25;14.70;;;7.50;;
72286;SDS011;60221;45.696;16.076;2023-10-13T09:06:47;16.90;;;8.20;;
72286;SDS011;60221;45.696;16.076;2023-10-13T09:09:27;16.10;;;8.90;;
72286;SDS011;60221;45.696;16.076;2023-10-13T09:12:01;16.00;;;7.50;;
72286;SDS011;60221;45.696;16.076;2023-10-13T09:14:36;13.70;;;8.00;;
72286;SDS011;60221;45.696;16.076;2023-10-13T09:17:12;14.80;;;7.50;;
72286;SDS011;60221;45.696;16.076;2023-10-13T09:19:45;13.80;;;7.60;;
72286;SDS011;60221;45.696;16.076;2023-10-13T09:22:19;17.00;;;8.20;;
72286;SDS011;60221;45.696;16.076;2023-10-13T09:24:56;15.50;;;8.50;;
72286;SDS011;60221;45.696;16.076;2023-10-13T09:27:29;16.30;;;8.30;;
72286;SDS011;60221;45.696;16.076;2023-10-13T09:29:59;15.90;;;7.50;;
72286;SDS011;60221;45.696;16.076;2023-10-13T09:32:45;12.60;;;7.30;;
72286;SDS011;60221;45.696;16.076;2023-10-13T09:35:19;17.80;;;8.20;;
72286;SDS011;60221;45.696;16.076;2023-10-13T09:37:49;19.60;;;8.10;;
72286;SDS011;60221;45.696;16.076;2023-10-13T09:40:17;17.50;;;7.70;;
72286;SDS011;60221;45.696;16.076;2023-10-13T09:43:13;17.10;;;7.70;;
72286;SDS011;60221;45.696;16.076;2023-10-13T09:45:48;15.10;;;7.90;;
72286;SDS011;60221;45.696;16.076;2023-10-13T09:48:35;16.90;;;8.10;;
72286;SDS011;60221;45.696;16.076;2023-10-13T09:51:03;16.80;;;7.60;;
72286;SDS011;60221;45.696;16.076;2023-10-13T09:53:36;14.50;;;7.80;;
72286;SDS011;60221;45.696;16.076;2023-10-13T09:56:28;16.20;;;7.20;;
72286;SDS011;60221;45.696;16.076;2023-10-13T09:58:58;14.80;;;7.50;;
72286;SDS011;60221;45.696;16.076;2023-10-13T10:01:27;15.80;;;7.60;;
72286;SDS011;60221;45.696;16.076;2023-10-13T10:04:08;17.80;;;7.60;;
72286;SDS011;60221;45.696;16.076;2023-10-13T10:06:38;14.60;;;7.70;;
72286;SDS011;60221;45.696;16.076;2023-10-13T10:09:14;16.30;;;8.10;;
72286;SDS011;60221;45.696;16.076;2023-10-13T10:12:01;16.40;;;8.00;;
72286;SDS011;60221;45.696;16.076;2023-10-13T10:14:56;14.10;;;7.10;;
72286;SDS011;60221;45.696;16.076;2023-10-13T10:17:23;18.10;;;7.60;;
72286;SDS011;60221;45.696;16.076;2023-10-13T10:19:51;16.80;;;7.40;;
72286;SDS011;60221;45.696;16.076;2023-10-13T10:22:29;14.20;;;7.00;;
72286;SDS011;60221;45.696;16.076;2023-10-13T10:25:05;17.70;;;7.30;;
72286;SDS011;60221;45.696;16.076;2023-10-13T10:27:55;16.00;;;7.70;;
72286;SDS011;60221;45.696;16.076;2023-10-13T10:30:26;16.10;;;7.70;;
72286;SDS011;60221;45.696;16.076;2023-10-13T10:32:54;16.20;;;7.60;;
72286;SDS011;60221;45.696;16.076;2023-10-13T10:35:22;15.20;;;7.20;;
72286;SDS011;60221;45.696;16.076;2023-10-13T10:37:49;18.60;;;7.10;;
72286;SDS011;60221;45.696;16.076;2023-10-13T10:40:17;17.70;;;7.80;;
72286;SDS011;60221;45.696;16.076;2023-10-13T10:42:59;13.70;;;7.20;;
72286;SDS011;60221;45.696;16.076;2023-10-13T10:45:55;19.50;;;7.80;;
72286;SDS011;60221;45.696;16.076;2023-10-13T10:48:31;13.40;;;7.50;;
72286;SDS011;60221;45.696;16.076;2023-10-13T10:51:01;16.70;;;7.30;;
72286;SDS011;60221;45.696;16.076;2023-10-13T10:53:34;16.90;;;7.80;;
72286;SDS011;60221;45.696;16.076;2023-10-13T10:56:11;14.20;;;6.60;;
72286;SDS011;60221;45.696;16.076;2023-10-13T10:58:50;16.70;;;7.40;;
72286;SDS011;60221;45.696;16.076;2023-10-13T11:01:27;13.50;;;8.00;;
72286;SDS011;60221;45.696;16.076;2023-10-13T11:04:01;15.50;;;7.40;;
72286;SDS011;60221;45.696;16.076;2023-10-13T11:06:35;14.20;;;8.10;;
72286;SDS011;60221;45.696;16.076;2023-10-13T11:09:09;15.30;;;7.70;;
72286;SDS011;60221;45.696;16.076;2023-10-13T11:11:46;14.90;;;6.80;;
72286;SDS011;60221;45.696;16.076;2023-10-13T11:14:27;12.10;;;7.40;;
72286;SDS011;60221;45.696;16.076;2023-10-13T11:16:55;12.40;;;6.70;;
72286;SDS011;60221;45.696;16.076;2023-10-13T11:19:38;17.00;;;7.40;;
72286;SDS011;60221;45.696;16.076;2023-10-13T11:22:15;16.40;;;7.90;;
72286;SDS011;60221;45.696;16.076;2023-10-13T11:25:05;14.30;;;8.20;;
72286;SDS011;60221;45.696;16.076;2023-10-13T11:27:39;14.40;;;7.60;;
72286;SDS011;60221;45.696;16.076;2023-10-13T11:30:16;17.00;;;9.20;;
72286;SDS011;60221;45.696;16.076;2023-10-13T11:33:05;14.50;;;8.50;;
72286;SDS011;60221;45.696;16.076;2023-10-13T11:35:33;18.70;;;9.20;;
72286;SDS011;60221;45.696;16.076;2023-10-13T11:38:19;15.00;;;8.60;;
72286;SDS011;60221;45.696;16.076;2023-10-13T11:40:53;16.00;;;8.70;;
72286;SDS011;60221;45.696;16.076;2023-10-13T11:43:34;16.40;;;9.60;;
72286;SDS011;60221;45.696;16.076;2023-10-13T11:48:41;16.00;;;7.50;;
72286;SDS011;60221;45.696;16.076;2023-10-13T11:51:09;20.30;;;8.10;;
72286;SDS011;60221;45.696;16.076;2023-10-13T11:53:44;14.50;;;8.10;;
72286;SDS011;60221;45.696;16.076;2023-10-13T11:56:12;15.10;;;8.10;;
72286;SDS011;60221;45.696;16.076;2023-10-13T11:58:39;18.30;;;8.80;;
72286;SDS011;60221;45.696;16.076;2023-10-13T12:01:07;16.50;;;9.20;;
72286;SDS011;60221;45.696;16.076;2023-10-13T12:03:43;15.70;;;8.00;;
72286;SDS011;60221;45.696;16.076;2023-10-13T12:06:30;16.30;;;8.20;;
72286;SDS011;60221;45.696;16.076;2023-10-13T12:09:08;18.70;;;8.80;;
72286;SDS011;60221;45.696;16.076;2023-10-13T12:11:44;15.80;;;8.20;;
72286;SDS011;60221;45.696;16.076;2023-10-13T12:14:12;16.30;;;8.20;;
72286;SDS011;60221;45.696;16.076;2023-10-13T12:16:59;15.40;;;7.70;;
72286;SDS011;60221;45.696;16.076;2023-10-13T12:19:31;16.50;;;8.20;;
72286;SDS011;60221;45.696;16.076;2023-10-13T12:21:58;15.30;;;8.00;;
72286;SDS011;60221;45.696;16.076;2023-10-13T12:24:34;16.30;;;8.40;;
72286;SDS011;60221;45.696;16.076;2023-10-13T12:29:29;15.20;;;8.50;;
72286;SDS011;60221;45.696;16.076;2023-10-13T12:31:56;15.30;;;8.80;;
72286;SDS011;60221;45.696;16.076;2023-10-13T12:34:38;17.90;;;9.00;;
72286;SDS011;60221;45.696;16.076;2023-10-13T12:37:24;15.80;;;8.70;;
72286;SDS011;60221;45.696;16.076;2023-10-13T12:40:14;19.80;;;9.50;;
72286;SDS011;60221;45.696;16.076;2023-10-13T12:42:59;17.20;;;8.70;;
72286;SDS011;60221;45.696;16.076;2023-10-13T12:45:46;17.60;;;8.30;;
72286;SDS011;60221;45.696;16.076;2023-10-13T12:48:32;15.20;;;8.50;;
72286;SDS011;60221;45.696;16.076;2023-10-13T12:51:18;19.10;;;8.50;;
72286;SDS011;60221;45.696;16.076;2023-10-13T12:54:07;16.00;;;9.00;;
72286;SDS011;60221;45.696;16.076;2023-10-13T12:56:47;15.40;;;7.60;;
72286;SDS011;60221;45.696;16.076;2023-10-13T12:59:14;18.10;;;7.70;;
72286;SDS011;60221;45.696;16.076;2023-10-13T13:01:41;16.30;;;8.20;;
72286;SDS011;60221;45.696;16.076;2023-10-13T13:04:11;18.40;;;8.60;;
72286;SDS011;60221;45.696;16.076;2023-10-13T13:06:48;16.00;;;8.00;;
72286;SDS011;60221;45.696;16.076;2023-10-13T13:09:16;13.90;;;7.50;;
72286;SDS011;60221;45.696;16.076;2023-10-13T13:11:53;16.60;;;7.80;;
72286;SDS011;60221;45.696;16.076;2023-10-13T13:14:24;17.40;;;8.10;;
72286;SDS011;60221;45.696;16.076;2023-10-13T13:16:58;13.00;;;7.60;;
72286;SDS011;60221;45.696;16.076;2023-10-13T13:19:32;17.90;;;8.90;;
72286;SDS011;60221;45.696;16.076;2023-10-13T13:22:03;22.10;;;9.40;;
72286;SDS011;60221;45.696;16.076;2023-10-13T13:24:30;15.40;;;8.50;;
72286;SDS011;60221;45.696;16.076;2023-10-13T13:26:57;15.60;;;8.30;;
72286;SDS011;60221;45.696;16.076;2023-10-13T13:29:29;14.30;;;8.00;;
72286;SDS011;60221;45.696;16.076;2023-10-13T13:31:57;14.80;;;7.90;;
72286;SDS011;60221;45.696;16.076;2023-10-13T13:34:24;18.30;;;8.40;;
72286;SDS011;60221;45.696;16.076;2023-10-13T13:36:52;15.10;;;8.20;;
72286;SDS011;60221;45.696;16.076;2023-10-13T13:39:20;14.70;;;7.90;;
72286;SDS011;60221;45.696;16.076;2023-10-13T13:41:55;14.40;;;8.10;;
72286;SDS011;60221;45.696;16.076;2023-10-13T13:44:25;15.40;;;7.90;;
72286;SDS011;60221;45.696;16.076;2023-10-13T13:47:02;13.70;;;8.00;;
72286;SDS011;60221;45.696;16.076;2023-10-13T13:49:39;15.70;;;7.90;;
72286;SDS011;60221;45.696;16.076;2023-10-13T13:52:07;16.80;;;7.70;;
72286;SDS011;60221;45.696;16.076;2023-10-13T13:54:34;16.20;;;7.90;;
72286;SDS011;60221;45.696;16.076;2023-10-13T13:57:01;15.00;;;8.00;;
72286;SDS011;60221;45.696;16.076;2023-10-13T13:59:28;13.30;;;8.10;;
72286;SDS011;60221;45.696;16.076;2023-10-13T14:02:01;17.10;;;8.00;;
72286;SDS011;60221;45.696;16.076;2023-10-13T14:04:32;15.10;;;7.80;;
72286;SDS011;60221;45.696;16.076;2023-10-13T14:07:00;15.60;;;7.70;;
72286;SDS011;60221;45.696;16.076;2023-10-13T14:09:33;14.90;;;8.20;;
72286;SDS011;60221;45.696;16.076;2023-10-13T14:12:02;13.80;;;7.30;;
72286;SDS011;60221;45.696;16.076;2023-10-13T14:14:48;15.40;;;7.50;;
72286;SDS011;60221;45.696;16.076;2023-10-13T14:17:24;14.90;;;7.30;;
72286;SDS011;60221;45.696;16.076;2023-10-13T14:19:57;18.80;;;7.80;;
72286;SDS011;60221;45.696;16.076;2023-10-13T14:22:24;14.40;;;7.60;;
72286;SDS011;60221;45.696;16.076;2023-10-13T14:24:52;15.00;;;7.40;;
72286;SDS011;60221;45.696;16.076;2023-10-13T14:27:21;15.30;;;7.90;;
72286;SDS011;60221;45.696;16.076;2023-10-13T14:29:50;16.40;;;7.50;;
72286;SDS011;60221;45.696;16.076;2023-10-13T14:32:20;16.70;;;7.70;;
72286;SDS011;60221;45.696;16.076;2023-10-13T14:34:52;15.00;;;7.30;;
72286;SDS011;60221;45.696;16.076;2023-10-13T14:37:23;15.40;;;7.60;;
72286;SDS011;60221;45.696;16.076;2023-10-13T14:39:53;15.70;;;8.70;;
72286;SDS011;60221;45.696;16.076;2023-10-13T14:42:24;13.30;;;6.90;;
72286;SDS011;60221;45.696;16.076;2023-10-13T14:44:52;13.70;;;8.00;;
72286;SDS011;60221;45.696;16.076;2023-10-13T14:47:25;16.30;;;7.80;;
72286;SDS011;60221;45.696;16.076;2023-10-13T14:49:56;14.90;;;7.60;;
72286;SDS011;60221;45.696;16.076;2023-10-13T14:52:26;14.80;;;7.50;;
72286;SDS011;60221;45.696;16.076;2023-10-13T14:54:53;13.30;;;7.20;;
72286;SDS011;60221;45.696;16.076;2023-10-13T14:57:23;16.10;;;7.30;;
72286;SDS011;60221;45.696;16.076;2023-10-13T14:59:54;14.60;;;8.20;;
72286;SDS011;60221;45.696;16.076;2023-10-13T15:02:21;15.30;;;8.10;;
72286;SDS011;60221;45.696;16.076;2023-10-13T15:04:49;14.90;;;8.00;;
72286;SDS011;60221;45.696;16.076;2023-10-13T15:07:16;12.20;;;7.30;;
72286;SDS011;60221;45.696;16.076;2023-10-13T15:09:46;15.30;;;7.30;;
72286;SDS011;60221;45.696;16.076;2023-10-13T15:12:13;15.60;;;7.40;;
72286;SDS011;60221;45.696;16.076;2023-10-13T15:14:46;15.20;;;7.40;;
72286;SDS011;60221;45.696;16.076;2023-10-13T15:17:13;13.50;;;7.50;;
72286;SDS011;60221;45.696;16.076;2023-10-13T15:19:43;13.20;;;6.90;;